Coatbridge, United Kingdom
Current Conditions -  °F | °C
As of 3:20 AM on Friday 19 Dec 2014 (Local Time) from EGPF Reporting Station
Light Rain Light Rain  
Wind Chill: 33°   Ceiling: 3500
Heat Index: 41°   Visibility: 6mi
Dew Point: 37°   Wind: 16mph
Humidity: 87%   Direction: 250°WSW
Pressure: 29.5"   Gusts: NA
Location:  55.86°N, 4.03°W
Report Text: EGPF 190320Z AUTO 25014KT 9999 -RA FEW017/// BKN035/// //////TCU 05/03 Q0999 RERA
Loading
Personal Weather Stations






























Interactive Weather Map New forecast layout! Learn more

10-Day Weather Forecast

Advertisements
Track Severe Weather on mobile